createdAt,value
2018-07-07T00:01:50.127Z,74.11
2018-07-07T00:04:18.754Z,74.42
2018-07-07T00:06:47.315Z,74.78
2018-07-07T00:09:16.151Z,74.29
2018-07-07T00:11:44.711Z,74.49
2018-07-07T00:14:13.396Z,74.35
2018-07-07T00:16:41.982Z,74.48
2018-07-07T00:19:10.613Z,74.70
2018-07-07T00:21:39.195Z,74.32
2018-07-07T00:24:07.781Z,73.82
2018-07-07T00:26:36.362Z,73.40
2018-07-07T00:29:04.952Z,73.66
2018-07-07T00:31:33.476Z,73.94
2018-07-07T00:34:02.169Z,73.80
2018-07-07T00:36:30.703Z,73.57
2018-07-07T00:38:59.223Z,73.43
2018-07-07T00:41:27.765Z,73.58
2018-07-07T00:43:56.360Z,73.66
2018-07-07T00:46:24.980Z,73.69
2018-07-07T00:48:53.568Z,73.06
2018-07-07T00:51:22.110Z,73.46
2018-07-07T00:53:50.704Z,73.33
2018-07-07T00:56:19.399Z,72.91
2018-07-07T00:58:47.949Z,73.33
2018-07-07T01:01:17.017Z,73.92
2018-07-07T01:03:45.977Z,73.29
2018-07-07T01:06:26.096Z,73.64
2018-07-07T01:08:54.744Z,73.90
2018-07-07T01:11:24.639Z,73.79
2018-07-07T01:13:53.413Z,74.17
2018-07-07T01:16:22.133Z,74.33
2018-07-07T01:18:50.679Z,73.99
2018-07-07T01:21:19.230Z,73.77
2018-07-07T01:23:47.792Z,73.41
2018-07-07T01:26:16.441Z,73.29
2018-07-07T01:28:44.981Z,73.86
2018-07-07T01:31:13.534Z,74.22
2018-07-07T01:33:42.062Z,74.28
2018-07-07T01:36:10.716Z,73.71
2018-07-07T01:38:39.259Z,74.14
2018-07-07T01:41:07.897Z,73.36
2018-07-07T01:43:36.463Z,72.87
2018-07-07T01:46:05.038Z,72.74
2018-07-07T01:48:33.617Z,72.90
2018-07-07T01:51:02.192Z,72.96
2018-07-07T01:53:30.748Z,72.66
2018-07-07T01:55:59.298Z,72.44
2018-07-07T01:58:27.980Z,72.93
2018-07-07T02:00:56.584Z,72.79
2018-07-07T02:03:25.116Z,73.83
2018-07-07T02:05:53.740Z,74.76
2018-07-07T02:08:22.283Z,74.44
2018-07-07T02:10:50.807Z,74.53
2018-07-07T02:13:19.387Z,75.17
2018-07-07T02:15:47.929Z,75.05
2018-07-07T02:18:16.516Z,75.61
2018-07-07T02:20:45.088Z,75.47
2018-07-07T02:23:13.801Z,75.92
2018-07-07T02:25:42.336Z,76.12
2018-07-07T02:28:10.937Z,75.63
2018-07-07T02:30:39.515Z,75.69
2018-07-07T02:33:08.168Z,75.52
2018-07-07T02:35:37.018Z,75.35
2018-07-07T02:38:05.692Z,75.46
2018-07-07T02:40:34.616Z,75.09
2018-07-07T02:43:03.248Z,75.04
2018-07-07T02:45:31.788Z,75.53
2018-07-07T02:48:00.336Z,75.95
2018-07-07T02:50:28.994Z,76.20
2018-07-07T02:52:57.560Z,75.49
2018-07-07T02:55:26.259Z,75.81
2018-07-07T02:58:03.694Z,75.76
2018-07-07T03:00:44.187Z,77.12
2018-07-07T03:03:21.419Z,76.57
2018-07-07T03:05:58.887Z,76.19
2018-07-07T03:08:35.827Z,76.38
2018-07-07T03:11:13.765Z,75.69
2018-07-07T03:13:43.684Z,76.55
2018-07-07T03:16:12.365Z,76.94
2018-07-07T03:18:41.674Z,77.13
2018-07-07T03:21:10.768Z,76.86
2018-07-07T03:23:39.482Z,76.90
2018-07-07T03:26:08.081Z,76.73
2018-07-07T03:28:41.209Z,76.76
2018-07-07T03:31:09.814Z,76.53
2018-07-07T03:33:45.407Z,75.96
2018-07-07T03:36:23.236Z,75.70
2018-07-07T03:38:56.857Z,75.75
2018-07-07T03:41:25.426Z,75.81
2018-07-07T03:43:58.412Z,75.78
2018-07-07T03:46:26.971Z,75.28
2018-07-07T03:48:56.247Z,75.34
2018-07-07T03:51:24.823Z,75.09
2018-07-07T03:53:53.377Z,75.62
2018-07-07T03:56:22.366Z,75.00
2018-07-07T03:58:51.279Z,75.34
2018-07-07T04:01:19.827Z,75.11
2018-07-07T04:03:48.380Z,75.05
2018-07-07T04:06:16.936Z,75.05
2018-07-07T04:08:45.484Z,74.93
2018-07-07T04:11:16.476Z,75.96
2018-07-07T04:13:45.064Z,76.16
2018-07-07T04:16:13.704Z,75.83
2018-07-07T04:18:42.292Z,76.10
2018-07-07T04:21:11.005Z,75.87
2018-07-07T04:23:48.059Z,75.92
2018-07-07T04:26:16.644Z,75.07
2018-07-07T04:28:48.527Z,75.22
2018-07-07T04:31:25.892Z,75.43
2018-07-07T04:34:06.103Z,75.76
2018-07-07T04:36:39.857Z,75.24
2018-07-07T04:39:17.604Z,74.78
2018-07-07T04:41:55.029Z,74.62
2018-07-07T04:44:23.572Z,74.43
2018-07-07T04:46:52.124Z,74.43
2018-07-07T04:49:20.762Z,74.60
2018-07-07T04:51:49.740Z,74.13
2018-07-07T04:54:18.698Z,73.67
2018-07-07T04:56:50.059Z,73.71
2018-07-07T04:59:20.990Z,74.28
2018-07-07T05:01:52.302Z,74.64
2018-07-07T05:04:21.062Z,75.00
2018-07-07T05:06:49.596Z,74.50
2018-07-07T05:09:18.179Z,74.80
2018-07-07T05:11:46.716Z,74.41
2018-07-07T05:14:15.264Z,74.45
2018-07-07T05:16:43.868Z,74.03
2018-07-07T05:19:12.707Z,73.66
2018-07-07T05:21:41.252Z,73.74
2018-07-07T05:24:09.906Z,73.26
2018-07-07T05:26:38.500Z,72.97
2018-07-07T05:29:07.155Z,72.69
2018-07-07T05:31:35.777Z,72.27
2018-07-07T05:34:04.354Z,70.46
2018-07-07T05:36:32.917Z,71.70
2018-07-07T05:39:01.516Z,70.60
2018-07-07T05:41:30.051Z,69.53
2018-07-07T05:43:58.601Z,70.31
2018-07-07T05:46:27.167Z,70.23
2018-07-07T05:48:55.743Z,69.06
2018-07-07T05:51:24.303Z,68.93
2018-07-07T05:53:52.874Z,67.18
2018-07-07T05:56:21.436Z,66.62
2018-07-07T05:58:50.028Z,65.80
2018-07-07T06:01:18.633Z,66.46
2018-07-07T06:03:47.198Z,65.37
2018-07-07T06:06:16.604Z,64.73
2018-07-07T06:08:45.143Z,65.07
2018-07-07T06:11:13.752Z,64.88
2018-07-07T06:13:42.338Z,62.88
2018-07-07T06:16:10.947Z,63.48
2018-07-07T06:18:39.520Z,63.24
2018-07-07T06:21:08.240Z,62.64
2018-07-07T06:23:36.833Z,62.02
2018-07-07T06:26:05.572Z,61.08
2018-07-07T06:28:34.368Z,60.17
2018-07-07T06:31:02.937Z,58.64
2018-07-07T06:33:31.489Z,59.23
2018-07-07T06:36:00.058Z,58.78
2018-07-07T06:38:28.935Z,58.52
2018-07-07T06:40:57.671Z,57.96
2018-07-07T06:43:26.301Z,57.36
2018-07-07T06:45:55.067Z,57.89
2018-07-07T06:48:23.621Z,56.95
2018-07-07T06:50:52.281Z,56.51
2018-07-07T06:53:20.908Z,56.15
2018-07-07T06:55:49.544Z,56.26
2018-07-07T06:58:18.500Z,56.07
2018-07-07T07:00:47.060Z,54.95
2018-07-07T07:03:15.629Z,54.73
2018-07-07T07:05:44.202Z,56.05
2018-07-07T07:08:12.963Z,55.51
2018-07-07T07:10:41.541Z,55.22
2018-07-07T07:13:10.300Z,55.14
2018-07-07T07:15:38.939Z,54.70
2018-07-07T07:18:07.527Z,53.50
2018-07-07T07:20:36.104Z,53.32
2018-07-07T07:23:04.776Z,53.32
2018-07-07T07:25:33.443Z,53.31
2018-07-07T07:28:20.493Z,51.00
2018-07-07T07:30:49.101Z,52.68
2018-07-07T07:33:18.442Z,54.57
2018-07-07T07:35:47.813Z,55.29
2018-07-07T07:38:16.420Z,55.57
2018-07-07T07:40:45.781Z,54.96
2018-07-07T07:43:15.344Z,53.85
2018-07-07T07:45:44.736Z,51.15
2018-07-07T07:48:25.946Z,52.17
2018-07-07T07:50:55.352Z,52.25
2018-07-07T07:53:24.796Z,50.41
2018-07-07T07:55:53.490Z,49.00
2018-07-07T07:58:22.059Z,48.59
2018-07-07T08:00:51.431Z,48.00
2018-07-07T08:03:20.036Z,48.02
2018-07-07T08:05:48.649Z,47.56
2018-07-07T08:08:17.223Z,47.13
2018-07-07T08:10:45.801Z,46.24
2018-07-07T08:13:14.372Z,45.71
2018-07-07T08:15:43.749Z,45.97
2018-07-07T08:18:13.423Z,45.04
2018-07-07T08:20:42.156Z,45.75
2018-07-07T08:23:11.702Z,47.50
2018-07-07T08:25:42.392Z,47.50
2018-07-07T08:28:11.877Z,46.68
2018-07-07T08:30:40.804Z,47.71
2018-07-07T08:33:09.583Z,47.14
2018-07-07T08:35:38.218Z,46.69
2018-07-07T08:38:08.993Z,46.59
2018-07-07T08:40:37.573Z,46.84
2018-07-07T08:43:06.797Z,46.95
2018-07-07T08:45:35.377Z,47.01
2018-07-07T08:50:54.779Z,45.65
2018-07-07T08:53:23.373Z,45.00
2018-07-07T08:55:51.917Z,46.45
2018-07-07T09:01:11.300Z,45.53
2018-07-07T09:03:39.864Z,44.31
2018-07-07T09:06:08.476Z,45.56
2018-07-07T09:08:37.075Z,44.98
2018-07-07T09:11:05.869Z,44.90
2018-07-07T09:13:34.392Z,44.67
2018-07-07T09:16:02.976Z,45.83
2018-07-07T09:18:31.585Z,46.23
2018-07-07T09:21:00.219Z,46.48
2018-07-07T09:23:28.769Z,46.81
2018-07-07T09:25:57.365Z,47.38
2018-07-07T09:28:25.921Z,47.52
2018-07-07T09:30:54.501Z,47.56
2018-07-07T09:33:23.842Z,47.47
2018-07-07T09:35:52.443Z,45.14
2018-07-07T09:38:21.025Z,46.68
2018-07-07T09:40:49.702Z,47.30
2018-07-07T09:43:18.328Z,47.78
2018-07-07T09:45:46.917Z,46.35
2018-07-07T09:48:15.634Z,48.14
2018-07-07T09:50:44.368Z,49.51
2018-07-07T09:53:14.124Z,50.30
2018-07-07T09:55:51.431Z,51.22
2018-07-07T09:58:29.317Z,53.37
2018-07-07T10:00:57.936Z,52.13
2018-07-07T10:03:27.528Z,53.02
2018-07-07T10:05:57.076Z,54.33
2018-07-07T10:08:27.658Z,53.82
2018-07-07T10:10:57.077Z,54.04
2018-07-07T10:13:26.910Z,53.34
2018-07-07T10:15:56.399Z,51.75
2018-07-07T10:18:25.939Z,49.64
2018-07-07T10:20:54.502Z,50.24
2018-07-07T10:23:24.910Z,51.07
2018-07-07T10:25:53.685Z,51.62
2018-07-07T10:28:22.270Z,52.38
2018-07-07T10:30:50.852Z,50.43
2018-07-07T10:33:19.400Z,50.52
2018-07-07T10:38:15.617Z,50.49
2018-07-07T10:40:44.292Z,49.86
2018-07-07T10:43:13.252Z,50.43
2018-07-07T10:45:41.867Z,50.65
2018-07-07T10:48:10.411Z,51.22
2018-07-07T10:50:38.993Z,51.05
2018-07-07T10:53:07.683Z,49.78
2018-07-07T10:55:36.581Z,50.11
2018-07-07T10:58:05.208Z,50.06
2018-07-07T11:00:33.772Z,48.83
2018-07-07T11:03:02.312Z,49.02
2018-07-07T11:05:30.907Z,47.96
2018-07-07T11:07:59.458Z,48.63
2018-07-07T11:10:28.005Z,49.20
2018-07-07T11:12:56.647Z,44.51
2018-07-07T11:15:25.349Z,43.38
2018-07-07T11:17:53.913Z,43.48
2018-07-07T11:20:22.526Z,43.52
2018-07-07T11:22:51.095Z,41.37
2018-07-07T11:25:19.813Z,42.64
2018-07-07T11:27:48.434Z,42.67
2018-07-07T11:30:17.164Z,42.61
2018-07-07T11:32:45.716Z,42.66
2018-07-07T11:35:14.286Z,43.29
2018-07-07T11:37:42.858Z,42.96
2018-07-07T11:40:11.461Z,43.30
2018-07-07T11:42:40.054Z,42.17
2018-07-07T11:45:08.832Z,42.59
2018-07-07T11:47:37.544Z,43.11
2018-07-07T11:50:06.207Z,42.95
2018-07-07T11:52:34.809Z,42.07
2018-07-07T11:55:03.468Z,42.66
2018-07-07T11:57:32.087Z,43.25
2018-07-07T12:00:00.629Z,43.10
2018-07-07T12:02:29.227Z,43.50
2018-07-07T12:04:57.937Z,42.37
2018-07-07T12:07:26.492Z,43.54
2018-07-07T12:09:55.056Z,43.64
2018-07-07T12:12:23.675Z,43.91
2018-07-07T12:14:52.286Z,43.55
2018-07-07T12:17:21.767Z,43.39
2018-07-07T12:19:51.230Z,42.45
2018-07-07T12:22:19.865Z,42.38
2018-07-07T12:24:48.438Z,41.97
2018-07-07T12:27:17.114Z,42.72
2018-07-07T12:29:45.788Z,42.19
2018-07-07T12:32:14.862Z,42.11
2018-07-07T12:34:43.411Z,41.00
2018-07-07T12:37:12.160Z,41.86
2018-07-07T12:42:31.056Z,40.41
2018-07-07T12:44:59.604Z,39.47
2018-07-07T12:47:28.151Z,39.81
2018-07-07T12:49:56.690Z,40.78
2018-07-07T12:52:25.322Z,40.94
2018-07-07T12:54:53.901Z,38.93
2018-07-07T12:57:22.460Z,37.60
2018-07-07T12:59:51.000Z,38.90
2018-07-07T13:02:19.630Z,39.66
2018-07-07T13:04:48.183Z,38.04
2018-07-07T13:07:16.728Z,38.65
2018-07-07T13:09:45.281Z,38.58
2018-07-07T13:12:13.896Z,37.53
2018-07-07T13:14:42.533Z,37.57
2018-07-07T13:17:11.228Z,38.74
2018-07-07T13:19:39.816Z,37.59
2018-07-07T13:22:08.456Z,37.20
2018-07-07T13:24:37.079Z,37.07
2018-07-07T13:27:05.885Z,38.16
2018-07-07T13:29:34.479Z,39.54
2018-07-07T13:32:03.042Z,38.63
2018-07-07T13:34:31.584Z,38.02
2018-07-07T13:37:00.137Z,37.96
2018-07-07T13:39:28.749Z,36.59
2018-07-07T13:41:57.393Z,37.27
2018-07-07T13:44:25.957Z,36.58
2018-07-07T13:46:54.569Z,36.56
2018-07-07T13:49:23.443Z,37.06
2018-07-07T13:51:52.247Z,36.67
2018-07-07T13:54:20.858Z,35.09
2018-07-07T13:56:49.396Z,35.94
2018-07-07T13:59:18.008Z,35.62
2018-07-07T14:01:46.601Z,35.31
2018-07-07T14:04:15.196Z,34.75
2018-07-07T14:06:43.733Z,35.22
2018-07-07T14:09:12.356Z,35.04
2018-07-07T14:11:40.923Z,35.51
2018-07-07T14:14:10.439Z,36.09
2018-07-07T14:16:39.765Z,36.51
2018-07-07T14:19:08.405Z,36.65
2018-07-07T14:21:37.000Z,34.48
2018-07-07T14:24:05.652Z,35.05
2018-07-07T14:26:34.212Z,34.86
2018-07-07T14:29:02.782Z,34.28
2018-07-07T14:31:31.461Z,32.86
2018-07-07T14:34:00.071Z,33.30
2018-07-07T14:36:28.729Z,33.58
2018-07-07T14:38:57.263Z,34.27
2018-07-07T14:41:25.928Z,32.59
2018-07-07T14:43:57.352Z,31.59
2018-07-07T14:46:26.656Z,33.03
2018-07-07T14:48:55.258Z,32.59
2018-07-07T14:51:24.177Z,32.49
2018-07-07T14:53:52.839Z,31.06
2018-07-07T14:56:22.636Z,33.01
2018-07-07T14:58:51.733Z,32.77
2018-07-07T15:01:20.710Z,32.18
2018-07-07T15:03:49.308Z,33.84
2018-07-07T15:06:17.927Z,32.46
2018-07-07T15:08:46.519Z,32.36
2018-07-07T15:11:15.317Z,32.78
2018-07-07T15:13:43.996Z,33.27
2018-07-07T15:16:12.637Z,32.73
2018-07-07T15:18:48.236Z,33.41
2018-07-07T15:21:16.789Z,32.32
2018-07-07T15:23:45.392Z,31.48
2018-07-07T15:26:14.004Z,32.07
2018-07-07T15:28:42.635Z,31.41
2018-07-07T15:31:11.462Z,32.15
2018-07-07T15:33:40.035Z,32.28
2018-07-07T15:36:08.642Z,33.72
2018-07-07T15:38:37.193Z,32.17
2018-07-07T15:41:05.784Z,33.41
2018-07-07T15:43:34.331Z,32.85
2018-07-07T15:46:02.917Z,32.05
2018-07-07T15:48:31.555Z,32.47
2018-07-07T15:51:00.148Z,31.35
2018-07-07T15:53:28.716Z,32.21
2018-07-07T15:55:57.295Z,33.15
2018-07-07T15:58:25.866Z,32.16
2018-07-07T16:00:54.454Z,30.74
2018-07-07T16:03:23.110Z,31.34
2018-07-07T16:05:51.668Z,32.12
2018-07-07T16:08:20.212Z,32.07
2018-07-07T16:10:48.790Z,31.83
2018-07-07T16:13:18.036Z,31.93
2018-07-07T16:15:48.772Z,31.93
2018-07-07T16:18:18.111Z,32.68
2018-07-07T16:20:47.458Z,30.94
2018-07-07T16:23:17.063Z,32.93
2018-07-07T16:25:45.631Z,31.55
2018-07-07T16:28:14.287Z,30.35
2018-07-07T16:30:42.873Z,30.66
2018-07-07T16:33:11.543Z,31.94
2018-07-07T16:35:40.145Z,31.92
2018-07-07T16:38:08.748Z,31.66
2018-07-07T16:40:37.334Z,32.47
2018-07-07T16:43:06.070Z,33.12
2018-07-07T16:45:34.789Z,33.22
2018-07-07T16:48:03.376Z,34.11
2018-07-07T16:50:32.028Z,34.66
2018-07-07T16:53:00.665Z,33.95
2018-07-07T16:55:29.491Z,33.75
2018-07-07T16:57:58.172Z,34.18
2018-07-07T17:00:26.839Z,33.20
2018-07-07T17:02:55.646Z,32.60
2018-07-07T17:05:24.404Z,33.64
2018-07-07T17:07:53.080Z,33.77
2018-07-07T17:10:21.651Z,34.38
2018-07-07T17:12:50.860Z,33.51
2018-07-07T17:15:19.480Z,33.50
2018-07-07T17:17:48.137Z,34.88
2018-07-07T17:20:16.753Z,35.47
2018-07-07T17:22:47.608Z,35.17
2018-07-07T17:25:16.445Z,36.12
2018-07-07T17:27:45.095Z,36.74
2018-07-07T17:30:13.860Z,35.87
2018-07-07T17:32:42.444Z,36.24
2018-07-07T17:35:11.396Z,36.71
2018-07-07T17:37:40.036Z,36.50
2018-07-07T17:40:09.876Z,37.16
2018-07-07T17:42:38.433Z,37.44
2018-07-07T17:45:07.016Z,37.05
2018-07-07T17:47:36.114Z,38.15
2018-07-07T17:50:04.853Z,38.34
2018-07-07T17:52:34.866Z,38.12
2018-07-07T17:55:05.473Z,38.68
2018-07-07T17:57:36.676Z,38.51
2018-07-07T18:00:05.464Z,39.43
2018-07-07T18:02:34.063Z,37.91
2018-07-07T18:05:03.678Z,37.52
2018-07-07T18:07:32.436Z,38.69
2018-07-07T18:10:00.988Z,38.21
2018-07-07T18:12:29.512Z,38.66
2018-07-07T18:14:58.899Z,38.93
2018-07-07T18:17:28.367Z,39.24
2018-07-07T18:19:56.907Z,39.97
2018-07-07T18:22:25.672Z,40.23
2018-07-07T18:24:54.424Z,40.31
2018-07-07T18:27:23.035Z,41.35
2018-07-07T18:29:51.615Z,41.90
2018-07-07T18:32:20.217Z,41.80
2018-07-07T18:34:48.900Z,41.88
2018-07-07T18:37:17.466Z,43.41
2018-07-07T18:39:46.068Z,45.41
2018-07-07T18:42:14.645Z,46.15
2018-07-07T18:44:43.238Z,46.38
2018-07-07T18:47:12.075Z,47.17
2018-07-07T18:49:40.631Z,47.14
2018-07-07T18:52:14.684Z,46.53
2018-07-07T18:54:43.266Z,47.12
2018-07-07T18:57:13.058Z,46.72
2018-07-07T18:59:41.615Z,46.54
2018-07-07T19:02:10.212Z,46.61
2018-07-07T19:04:39.804Z,46.51
2018-07-07T19:07:08.401Z,46.23
2018-07-07T19:09:36.999Z,46.62
2018-07-07T19:12:05.680Z,47.25
2018-07-07T19:14:34.233Z,46.57
2018-07-07T19:17:02.848Z,46.64
2018-07-07T19:19:31.395Z,47.08
2018-07-07T19:22:05.875Z,47.08
2018-07-07T19:24:40.539Z,47.36
2018-07-07T19:27:09.133Z,47.36
2018-07-07T19:29:38.597Z,46.68
2018-07-07T19:32:13.127Z,47.06
2018-07-07T19:35:44.260Z,47.07
2018-07-07T19:38:13.716Z,47.83
2018-07-07T19:40:43.132Z,48.16
2018-07-07T19:43:11.786Z,47.96
2018-07-07T19:45:40.384Z,48.22
2018-07-07T19:48:10.125Z,48.78
2018-07-07T19:50:38.728Z,49.14
2018-07-07T19:53:07.432Z,49.96
2018-07-07T19:55:35.992Z,50.96
2018-07-07T19:58:04.565Z,51.50
2018-07-07T20:00:33.103Z,51.40
2018-07-07T20:03:01.678Z,51.84
2018-07-07T20:05:31.048Z,51.83
2018-07-07T20:07:59.591Z,52.01
2018-07-07T20:10:28.185Z,52.83
2018-07-07T20:12:56.832Z,52.83
2018-07-07T20:15:36.560Z,52.64
2018-07-07T20:18:06.504Z,53.32
2018-07-07T20:20:40.166Z,53.15
2018-07-07T20:23:16.499Z,52.86
2018-07-07T20:25:50.379Z,52.55
2018-07-07T20:28:24.449Z,53.86
2018-07-07T20:30:57.794Z,53.72
2018-07-07T20:33:27.172Z,53.72
2018-07-07T20:35:55.811Z,53.93
2018-07-07T20:38:24.647Z,54.02
2018-07-07T20:40:53.448Z,53.61
2018-07-07T20:43:22.047Z,54.38
2018-07-07T20:45:50.626Z,53.68
2018-07-07T20:48:19.176Z,53.20
2018-07-07T20:50:47.707Z,53.16
2018-07-07T20:55:36.010Z,52.97
2018-07-07T20:58:04.648Z,53.08
2018-07-07T21:00:33.269Z,53.06
2018-07-07T21:03:01.822Z,52.25
2018-07-07T21:05:30.461Z,52.26
2018-07-07T21:07:59.108Z,51.63
2018-07-07T21:10:27.691Z,51.74
2018-07-07T21:12:56.299Z,52.14
2018-07-07T21:15:24.931Z,51.54
2018-07-07T21:17:53.497Z,52.13
2018-07-07T21:20:22.080Z,53.08
2018-07-07T21:22:50.639Z,53.27
2018-07-07T21:25:19.205Z,53.43
2018-07-07T21:27:47.823Z,53.44
2018-07-07T21:30:16.496Z,53.51
2018-07-07T21:32:45.052Z,53.45
2018-07-07T21:35:13.674Z,53.47
2018-07-07T21:37:42.288Z,54.03
2018-07-07T21:40:10.880Z,53.56
2018-07-07T21:42:39.664Z,53.65
2018-07-07T21:45:08.285Z,54.27
2018-07-07T21:47:36.877Z,54.38
2018-07-07T21:50:05.911Z,54.67
2018-07-07T21:52:34.492Z,54.59
2018-07-07T21:55:03.144Z,55.26
2018-07-07T21:57:36.859Z,55.50
2018-07-07T22:00:06.077Z,54.35
2018-07-07T22:02:40.672Z,54.53
2018-07-07T22:05:14.355Z,54.38
2018-07-07T22:07:42.931Z,54.73
2018-07-07T22:10:11.612Z,54.52
2018-07-07T22:12:40.171Z,55.00
2018-07-07T22:15:08.934Z,55.08
2018-07-07T22:17:37.500Z,55.89
2018-07-07T22:20:06.112Z,56.13
2018-07-07T22:22:34.715Z,56.04
2018-07-07T22:25:03.367Z,55.96
2018-07-07T22:27:32.049Z,56.08
2018-07-07T22:30:00.656Z,54.93
2018-07-07T22:32:33.410Z,55.44
2018-07-07T22:35:07.463Z,55.74
2018-07-07T22:37:36.109Z,55.96
2018-07-07T22:40:04.748Z,55.77
2018-07-07T22:42:33.296Z,55.05
2018-07-07T22:45:01.937Z,55.89
2018-07-07T22:47:30.536Z,56.32
2018-07-07T22:49:59.110Z,56.69
2018-07-07T22:52:27.711Z,57.28
2018-07-07T22:54:56.267Z,57.74
2018-07-07T22:57:24.897Z,57.87
2018-07-07T22:59:53.596Z,57.71
2018-07-07T23:02:22.196Z,56.37
2018-07-07T23:04:50.865Z,55.87
2018-07-07T23:07:19.441Z,55.87
2018-07-07T23:09:48.007Z,55.60
2018-07-07T23:12:16.608Z,55.43
2018-07-07T23:14:45.219Z,55.15
2018-07-07T23:17:14.001Z,55.47
2018-07-07T23:19:42.713Z,54.76
2018-07-07T23:22:12.184Z,55.01
2018-07-07T23:24:40.765Z,55.45
2018-07-07T23:27:09.407Z,55.55
2018-07-07T23:29:38.153Z,55.84
2018-07-07T23:32:06.763Z,55.27
2018-07-07T23:34:35.371Z,55.98
2018-07-07T23:37:03.987Z,55.79
2018-07-07T23:39:32.516Z,55.90
2018-07-07T23:42:01.122Z,56.47
2018-07-07T23:44:29.745Z,55.89
2018-07-07T23:46:58.351Z,55.58
2018-07-07T23:49:27.184Z,54.78
2018-07-07T23:51:55.848Z,53.86
2018-07-07T23:54:24.462Z,53.43
2018-07-07T23:56:53.020Z,54.52
2018-07-07T23:59:21.614Z,55.61
